Mediterranean Sea — WDG229 — position and weather

sailwx.info

Track history (hours):
 
Tides and Currents Weather Stations Pressure Air Temp Water Temp Dewpoint Dewpoint Depression Visibility Wind Speed Wind Dir Waves Ship Positions

Mediterranean Sea

Last reported at 2015-Sep-03 11:11 UTC. Time now 2015-Sep-03 19:14 UTC.
Position N 40°33' W 074°14'.

Length 33 m; draft 6 m.

Type: Towing. MMSI: 367010390.

Date/timePositionNaut miles runAvg speedWind from/ knotsBaromVisibWave heightAir tempDewpointWater temp
2015-Sep-03 11:11N 40°33' W 074°14'2 1.9
2015-Sep-03 10:13N 40°32' W 074°15'0 0.6
2015-Sep-03 09:19N 40°31' W 074°15'2 1.9
2015-Sep-03 08:28N 40°30' W 074°15'0 0.0
2015-Sep-03 07:28N 40°30' W 074°15'0 0.0
2015-Sep-03 06:16N 40°30' W 074°15'0 0.0
2015-Sep-03 05:28N 40°30' W 074°15'1 0.6
2015-Sep-03 03:33N 40°30' W 074°17'1 0.4
2015-Sep-03 01:10N 40°31' W 074°18'4 4.5
2015-Sep-03 00:20N 40°33' W 074°14'6 7.9
2015-Sep-02 23:33N 40°39' W 074°10'0 0.1
2015-Sep-02 22:31N 40°39' W 074°10'0 0.0
2015-Sep-02 21:31N 40°39' W 074°10'0 0.0
2015-Sep-02 20:31N 40°39' W 074°10'0 0.0
2015-Sep-02 19:31N 40°39' W 074°10'0 0.1
2015-Sep-02 18:31N 40°38' W 074°10'0 0.0
2015-Sep-02 17:31N 40°39' W 074°10'0 0.0
2015-Sep-02 16:31N 40°38' W 074°10'0 0.0
2015-Sep-02 15:28N 40°39' W 074°10'0 0.0
2015-Sep-02 14:18N 40°39' W 074°10'0 0.0
2015-Sep-02 13:31N 40°39' W 074°10'0 0.0
2015-Sep-02 12:22N 40°39' W 074°10'0 0.0
2015-Sep-02 11:29N 40°39' W 074°10'3 3.7
2015-Sep-02 10:32N 40°36' W 074°12'6 5.8
2015-Sep-02 09:27N 40°31' W 074°18'0 0.0
2015-Sep-02 06:25N 40°31' W 074°18'0 0.0
2015-Sep-02 05:13N 40°31' W 074°18'0 0.1
2015-Sep-02 04:32N 40°31' W 074°18'2 1.6
2015-Sep-02 03:33N 40°30' W 074°16'1 0.6
2015-Sep-02 02:33N 40°30' W 074°16'0 0.0
2015-Sep-02 01:31N 40°30' W 074°16'0 0.0
2015-Sep-02 00:28N 40°30' W 074°16'0 0.0
2015-Sep-01 23:31N 40°30' W 074°16'0 0.1
2015-Sep-01 22:31N 40°30' W 074°16'0 0.1
2015-Sep-01 20:31N 40°30' W 074°15'4 0.9
2015-Sep-01 16:20N 40°33' W 074°15'4 4.5
2015-Sep-01 15:33N 40°36' W 074°12'0 0.1
2015-Sep-01 14:30N 40°36' W 074°12'0 0.0
2015-Sep-01 13:33N 40°36' W 074°12'0 0.0
2015-Sep-01 12:32N 40°36' W 074°12'0 0.0
2015-Sep-01 11:32N 40°36' W 074°12'0 0.0
2015-Sep-01 10:33N 40°36' W 074°12'0 0.0
2015-Sep-01 09:32N 40°36' W 074°12'0 0.0
2015-Sep-01 08:33N 40°36' W 074°12'0 0.0
2015-Sep-01 07:33N 40°36' W 074°12'0 0.0
2015-Sep-01 06:33N 40°36' W 074°12'0 0.0
2015-Sep-01 05:33N 40°36' W 074°12'0 0.0
2015-Sep-01 04:33N 40°36' W 074°12'0 0.0
2015-Sep-01 03:30N 40°36' W 074°12'0 0.0
2015-Sep-01 02:32N 40°36' W 074°12'0 0.0
2015-Sep-01 01:30N 40°36' W 074°12'0 0.0
2015-Sep-01 00:33N 40°36' W 074°12'0 0.0
2015-Aug-31 23:27N 40°36' W 074°12'0 0.0
2015-Aug-31 22:29N 40°36' W 074°12'0 0.0
2015-Aug-31 21:32N 40°36' W 074°12'0 0.0
2015-Aug-31 20:32N 40°36' W 074°12'0 0.0
2015-Aug-31 19:32N 40°36' W 074°12'2 1.6
2015-Aug-31 18:29N 40°35' W 074°13'2 0.2
2015-Aug-31 06:24N 40°33' W 074°14'0 0.0
2015-Aug-31 04:30N 40°33' W 074°14'0 0.0
2015-Aug-30 22:30N 40°33' W 074°14'0 0.0
2015-Aug-30 21:30N 40°33' W 074°14'0 0.0
2015-Aug-30 18:30N 40°33' W 074°14'0 0.0
2015-Aug-30 13:30N 40°33' W 074°14'0 0.0
2015-Aug-30 12:18N 40°33' W 074°14'1 0.1
2015-Aug-30 00:09N 40°33' W 074°15'3 0.1
2015-Aug-28 14:16N 40°31' W 074°18'6 2.8
2015-Aug-28 12:17N 40°35' W 074°13'4 6.1
2015-Aug-28 11:34N 40°39' W 074°10'1 0.5
2015-Aug-28 10:33N 40°39' W 074°10'0 0.0
2015-Aug-28 09:33N 40°39' W 074°10'0 0.0
2015-Aug-28 08:33N 40°39' W 074°10'0 0.0
2015-Aug-28 07:33N 40°39' W 074°10'0 0.0
2015-Aug-28 06:33N 40°39' W 074°10'0 0.0
2015-Aug-28 05:33N 40°39' W 074°10'0 0.0
2015-Aug-28 04:33N 40°39' W 074°10'0 0.0
2015-Aug-28 03:33N 40°39' W 074°10'0 0.0
2015-Aug-28 02:33N 40°39' W 074°10'0 0.0
2015-Aug-28 01:33N 40°39' W 074°10'0 0.0
2015-Aug-28 00:33N 40°39' W 074°10'0 0.0
2015-Aug-27 23:33N 40°39' W 074°10'0 0.0
2015-Aug-27 22:33N 40°39' W 074°10'0 0.0
2015-Aug-27 21:30N 40°39' W 074°10'0 0.0
2015-Aug-27 20:33N 40°39' W 074°10'0 0.0
2015-Aug-27 19:33N 40°39' W 074°10'0 0.0
2015-Aug-27 18:33N 40°39' W 074°10'0 0.0
2015-Aug-27 17:30N 40°39' W 074°10'0 0.0
2015-Aug-27 16:33N 40°39' W 074°10'0 0.0
2015-Aug-27 15:33N 40°39' W 074°10'0 0.0
2015-Aug-27 14:30N 40°39' W 074°10'0 0.0
2015-Aug-27 13:30N 40°39' W 074°10'0 0.0
2015-Aug-27 12:33N 40°39' W 074°10'0 0.0
2015-Aug-27 11:33N 40°39' W 074°10'0 0.0
2015-Aug-27 10:33N 40°39' W 074°10'0 0.0
2015-Aug-27 09:33N 40°39' W 074°10'0 0.0
2015-Aug-27 08:33N 40°39' W 074°10'0 0.0
2015-Aug-27 07:33N 40°39' W 074°10'0 0.0
2015-Aug-27 06:33N 40°38' W 074°10'0 0.0
2015-Aug-27 05:33N 40°38' W 074°10'0 0.0
2015-Aug-27 04:33N 40°39' W 074°10'0 0.0
2015-Aug-27 03:33N 40°39' W 074°10'0 0.0
2015-Aug-27 02:33N 40°38' W 074°10'0 0.0
2015-Aug-27 01:33N 40°39' W 074°10'0 0.0
2015-Aug-27 00:33N 40°38' W 074°10'0 0.0
2015-Aug-26 23:33N 40°38' W 074°10'0 0.0
2015-Aug-26 22:33N 40°38' W 074°10'0 0.0
2015-Aug-26 21:33N 40°38' W 074°10'0 0.0
2015-Aug-26 20:33N 40°38' W 074°10'0 0.0
2015-Aug-26 19:33N 40°39' W 074°10'0 0.0
2015-Aug-26 18:33N 40°38' W 074°10'0 0.0
2015-Aug-26 17:33N 40°38' W 074°10'0 0.0
2015-Aug-26 16:33N 40°38' W 074°10'0 0.3
2015-Aug-26 15:21N 40°38' W 074°09'0 0.4
2015-Aug-26 14:28N 40°39' W 074°10'0 0.0
2015-Aug-26 13:31N 40°39' W 074°10'0 0.0
2015-Aug-26 12:31N 40°39' W 074°10'0 0.0
2015-Aug-26 11:28N 40°39' W 074°10'0 0.0
2015-Aug-26 10:31N 40°39' W 074°10'0 0.0
2015-Aug-26 09:31N 40°39' W 074°10'0 0.0
2015-Aug-26 08:31N 40°39' W 074°10'0 0.0
2015-Aug-26 07:31N 40°39' W 074°10'0 0.0
2015-Aug-26 06:31N 40°39' W 074°10'0 0.0
2015-Aug-26 05:31N 40°39' W 074°10'0 0.0
2015-Aug-26 04:31N 40°39' W 074°10'0 0.0
2015-Aug-26 03:31N 40°39' W 074°10'1 1.4
2015-Aug-26 02:33N 40°39' W 074°08'4 3.8
2015-Aug-26 01:31N 40°39' W 074°03'0 0.0
2015-Aug-26 00:31N 40°39' W 074°03'0 0.1
2015-Aug-25 23:31N 40°39' W 074°03'0 0.0
2015-Aug-25 22:31N 40°39' W 074°03'0 0.0
2015-Aug-25 21:31N 40°39' W 074°03'5 5.1
2015-Aug-25 20:32N 40°38' W 074°10'0 0.3
2015-Aug-25 19:33N 40°39' W 074°10'0 0.0
2015-Aug-25 18:30N 40°39' W 074°10'0 0.0
2015-Aug-25 17:30N 40°39' W 074°10'2 2.3
2015-Aug-25 16:33N 40°40' W 074°08'2 2.1
2015-Aug-25 15:31N 40°39' W 074°10'0 0.0
2015-Aug-25 14:31N 40°39' W 074°10'0 0.0
2015-Aug-25 13:31N 40°39' W 074°10'0 0.0
2015-Aug-25 12:31N 40°39' W 074°10'0 0.0
2015-Aug-25 11:31N 40°39' W 074°10'0 0.4
2015-Aug-25 10:28N 40°38' W 074°09'0 0.0
2015-Aug-25 09:31N 40°38' W 074°09'0 0.0
2015-Aug-25 08:28N 40°38' W 074°09'0 0.0
2015-Aug-25 07:31N 40°38' W 074°09'0 0.0
2015-Aug-25 06:31N 40°38' W 074°10'0 0.0
2015-Aug-25 05:22N 40°38' W 074°09'0 0.0
2015-Aug-25 04:28N 40°38' W 074°09'0 0.0
2015-Aug-25 03:31N 40°38' W 074°09'0 0.0
2015-Aug-25 02:31N 40°38' W 074°09'0 0.0
2015-Aug-25 01:25N 40°38' W 074°09'0 0.0
2015-Aug-25 00:31N 40°38' W 074°09'0 0.1
2015-Aug-24 23:33N 40°38' W 074°09'9 8.9
2015-Aug-24 22:31N 40°42' W 073°58'1 0.6
2015-Aug-24 21:33N 40°42' W 073°59'0 0.4
2015-Aug-24 20:33N 40°42' W 073°59'0 0.3
2015-Aug-24 19:33N 40°42' W 073°58'0 0.0
2015-Aug-24 18:33N 40°42' W 073°58'0 0.0
2015-Aug-24 17:33N 40°42' W 073°58'0 0.0
2015-Aug-24 16:33N 40°42' W 073°58'2 1.9
2015-Aug-24 15:33N 40°41' W 074°01'6 5.5
2015-Aug-24 14:31N 40°39' W 074°07'0 0.0
2015-Aug-24 13:29N 40°39' W 074°07'0 0.2
2015-Aug-24 12:32N 40°39' W 074°07'2 2.2
2015-Aug-24 11:32N 40°39' W 074°10'  
Track history (hours):
 
Tides and Currents Weather Stations Pressure Air Temp Water Temp Dewpoint Dewpoint Depression Visibility Wind Speed Wind Dir Waves Ship Positions

Mediterranean Sea

Last reported at 2015-Sep-03 11:11 UTC. Time now 2015-Sep-03 19:14 UTC.
Position N 40°33' W 074°14'.

Length 33 m; draft 6 m.

Type: Towing. MMSI: 367010390.

Date/timePositionNaut miles runAvg speedWind from/ knotsBaromVisibWave heightAir tempDewpointWater temp
2015-Sep-03 11:11N 40°33' W 074°14'2 1.9
2015-Sep-03 10:13N 40°32' W 074°15'0 0.6
2015-Sep-03 09:19N 40°31' W 074°15'2 1.9
2015-Sep-03 08:28N 40°30' W 074°15'0 0.0
2015-Sep-03 07:28N 40°30' W 074°15'0 0.0
2015-Sep-03 06:16N 40°30' W 074°15'0 0.0
2015-Sep-03 05:28N 40°30' W 074°15'1 0.6
2015-Sep-03 03:33N 40°30' W 074°17'1 0.4
2015-Sep-03 01:10N 40°31' W 074°18'4 4.5
2015-Sep-03 00:20N 40°33' W 074°14'6 7.9
2015-Sep-02 23:33N 40°39' W 074°10'0 0.1
2015-Sep-02 22:31N 40°39' W 074°10'0 0.0
2015-Sep-02 21:31N 40°39' W 074°10'0 0.0
2015-Sep-02 20:31N 40°39' W 074°10'0 0.0
2015-Sep-02 19:31N 40°39' W 074°10'0 0.1
2015-Sep-02 18:31N 40°38' W 074°10'0 0.0
2015-Sep-02 17:31N 40°39' W 074°10'0 0.0
2015-Sep-02 16:31N 40°38' W 074°10'0 0.0
2015-Sep-02 15:28N 40°39' W 074°10'0 0.0
2015-Sep-02 14:18N 40°39' W 074°10'0 0.0
2015-Sep-02 13:31N 40°39' W 074°10'0 0.0
2015-Sep-02 12:22N 40°39' W 074°10'0 0.0
2015-Sep-02 11:29N 40°39' W 074°10'3 3.7
2015-Sep-02 10:32N 40°36' W 074°12'6 5.8
2015-Sep-02 09:27N 40°31' W 074°18'0 0.0
2015-Sep-02 06:25N 40°31' W 074°18'0 0.0
2015-Sep-02 05:13N 40°31' W 074°18'0 0.1
2015-Sep-02 04:32N 40°31' W 074°18'2 1.6
2015-Sep-02 03:33N 40°30' W 074°16'1 0.6
2015-Sep-02 02:33N 40°30' W 074°16'0 0.0
2015-Sep-02 01:31N 40°30' W 074°16'0 0.0
2015-Sep-02 00:28N 40°30' W 074°16'0 0.0
2015-Sep-01 23:31N 40°30' W 074°16'0 0.1
2015-Sep-01 22:31N 40°30' W 074°16'0 0.1
2015-Sep-01 20:31N 40°30' W 074°15'4 0.9
2015-Sep-01 16:20N 40°33' W 074°15'4 4.5
2015-Sep-01 15:33N 40°36' W 074°12'0 0.1
2015-Sep-01 14:30N 40°36' W 074°12'0 0.0
2015-Sep-01 13:33N 40°36' W 074°12'0 0.0
2015-Sep-01 12:32N 40°36' W 074°12'0 0.0
2015-Sep-01 11:32N 40°36' W 074°12'0 0.0
2015-Sep-01 10:33N 40°36' W 074°12'0 0.0
2015-Sep-01 09:32N 40°36' W 074°12'0 0.0
2015-Sep-01 08:33N 40°36' W 074°12'0 0.0
2015-Sep-01 07:33N 40°36' W 074°12'0 0.0
2015-Sep-01 06:33N 40°36' W 074°12'0 0.0
2015-Sep-01 05:33N 40°36' W 074°12'0 0.0
2015-Sep-01 04:33N 40°36' W 074°12'0 0.0
2015-Sep-01 03:30N 40°36' W 074°12'0 0.0
2015-Sep-01 02:32N 40°36' W 074°12'0 0.0
2015-Sep-01 01:30N 40°36' W 074°12'0 0.0
2015-Sep-01 00:33N 40°36' W 074°12'0 0.0
2015-Aug-31 23:27N 40°36' W 074°12'0 0.0
2015-Aug-31 22:29N 40°36' W 074°12'0 0.0
2015-Aug-31 21:32N 40°36' W 074°12'0 0.0
2015-Aug-31 20:32N 40°36' W 074°12'0 0.0
2015-Aug-31 19:32N 40°36' W 074°12'2 1.6
2015-Aug-31 18:29N 40°35' W 074°13'2 0.2
2015-Aug-31 06:24N 40°33' W 074°14'0 0.0
2015-Aug-31 04:30N 40°33' W 074°14'0 0.0
2015-Aug-30 22:30N 40°33' W 074°14'0 0.0
2015-Aug-30 21:30N 40°33' W 074°14'0 0.0
2015-Aug-30 18:30N 40°33' W 074°14'0 0.0
2015-Aug-30 13:30N 40°33' W 074°14'0 0.0
2015-Aug-30 12:18N 40°33' W 074°14'1 0.1
2015-Aug-30 00:09N 40°33' W 074°15'3 0.1
2015-Aug-28 14:16N 40°31' W 074°18'6 2.8
2015-Aug-28 12:17N 40°35' W 074°13'4 6.1
2015-Aug-28 11:34N 40°39' W 074°10'1 0.5
2015-Aug-28 10:33N 40°39' W 074°10'0 0.0
2015-Aug-28 09:33N 40°39' W 074°10'0 0.0
2015-Aug-28 08:33N 40°39' W 074°10'0 0.0
2015-Aug-28 07:33N 40°39' W 074°10'0 0.0
2015-Aug-28 06:33N 40°39' W 074°10'0 0.0
2015-Aug-28 05:33N 40°39' W 074°10'0 0.0
2015-Aug-28 04:33N 40°39' W 074°10'0 0.0
2015-Aug-28 03:33N 40°39' W 074°10'0 0.0
2015-Aug-28 02:33N 40°39' W 074°10'0 0.0
2015-Aug-28 01:33N 40°39' W 074°10'0 0.0
2015-Aug-28 00:33N 40°39' W 074°10'0 0.0
2015-Aug-27 23:33N 40°39' W 074°10'0 0.0
2015-Aug-27 22:33N 40°39' W 074°10'0 0.0
2015-Aug-27 21:30N 40°39' W 074°10'0 0.0
2015-Aug-27 20:33N 40°39' W 074°10'0 0.0
2015-Aug-27 19:33N 40°39' W 074°10'0 0.0
2015-Aug-27 18:33N 40°39' W 074°10'0 0.0
2015-Aug-27 17:30N 40°39' W 074°10'0 0.0
2015-Aug-27 16:33N 40°39' W 074°10'0 0.0
2015-Aug-27 15:33N 40°39' W 074°10'0 0.0
2015-Aug-27 14:30N 40°39' W 074°10'0 0.0
2015-Aug-27 13:30N 40°39' W 074°10'0 0.0
2015-Aug-27 12:33N 40°39' W 074°10'0 0.0
2015-Aug-27 11:33N 40°39' W 074°10'0 0.0
2015-Aug-27 10:33N 40°39' W 074°10'0 0.0
2015-Aug-27 09:33N 40°39' W 074°10'0 0.0
2015-Aug-27 08:33N 40°39' W 074°10'0 0.0
2015-Aug-27 07:33N 40°39' W 074°10'0 0.0
2015-Aug-27 06:33N 40°38' W 074°10'0 0.0
2015-Aug-27 05:33N 40°38' W 074°10'0 0.0
2015-Aug-27 04:33N 40°39' W 074°10'0 0.0
2015-Aug-27 03:33N 40°39' W 074°10'0 0.0
2015-Aug-27 02:33N 40°38' W 074°10'0 0.0
2015-Aug-27 01:33N 40°39' W 074°10'0 0.0
2015-Aug-27 00:33N 40°38' W 074°10'0 0.0
2015-Aug-26 23:33N 40°38' W 074°10'0 0.0
2015-Aug-26 22:33N 40°38' W 074°10'0 0.0
2015-Aug-26 21:33N 40°38' W 074°10'0 0.0
2015-Aug-26 20:33N 40°38' W 074°10'0 0.0
2015-Aug-26 19:33N 40°39' W 074°10'0 0.0
2015-Aug-26 18:33N 40°38' W 074°10'0 0.0
2015-Aug-26 17:33N 40°38' W 074°10'0 0.0
2015-Aug-26 16:33N 40°38' W 074°10'0 0.3
2015-Aug-26 15:21N 40°38' W 074°09'0 0.4
2015-Aug-26 14:28N 40°39' W 074°10'0 0.0
2015-Aug-26 13:31N 40°39' W 074°10'0 0.0
2015-Aug-26 12:31N 40°39' W 074°10'0 0.0
2015-Aug-26 11:28N 40°39' W 074°10'0 0.0
2015-Aug-26 10:31N 40°39' W 074°10'0 0.0
2015-Aug-26 09:31N 40°39' W 074°10'0 0.0
2015-Aug-26 08:31N 40°39' W 074°10'0 0.0
2015-Aug-26 07:31N 40°39' W 074°10'0 0.0
2015-Aug-26 06:31N 40°39' W 074°10'0 0.0
2015-Aug-26 05:31N 40°39' W 074°10'0 0.0
2015-Aug-26 04:31N 40°39' W 074°10'0 0.0
2015-Aug-26 03:31N 40°39' W 074°10'1 1.4
2015-Aug-26 02:33N 40°39' W 074°08'4 3.8
2015-Aug-26 01:31N 40°39' W 074°03'0 0.0
2015-Aug-26 00:31N 40°39' W 074°03'0 0.1
2015-Aug-25 23:31N 40°39' W 074°03'0 0.0
2015-Aug-25 22:31N 40°39' W 074°03'0 0.0
2015-Aug-25 21:31N 40°39' W 074°03'5 5.1
2015-Aug-25 20:32N 40°38' W 074°10'0 0.3
2015-Aug-25 19:33N 40°39' W 074°10'0 0.0
2015-Aug-25 18:30N 40°39' W 074°10'0 0.0
2015-Aug-25 17:30N 40°39' W 074°10'2 2.3
2015-Aug-25 16:33N 40°40' W 074°08'2 2.1
2015-Aug-25 15:31N 40°39' W 074°10'0 0.0
2015-Aug-25 14:31N 40°39' W 074°10'0 0.0
2015-Aug-25 13:31N 40°39' W 074°10'0 0.0
2015-Aug-25 12:31N 40°39' W 074°10'0 0.0
2015-Aug-25 11:31N 40°39' W 074°10'0 0.4
2015-Aug-25 10:28N 40°38' W 074°09'0 0.0
2015-Aug-25 09:31N 40°38' W 074°09'0 0.0
2015-Aug-25 08:28N 40°38' W 074°09'0 0.0
2015-Aug-25 07:31N 40°38' W 074°09'0 0.0
2015-Aug-25 06:31N 40°38' W 074°10'0 0.0
2015-Aug-25 05:22N 40°38' W 074°09'0 0.0
2015-Aug-25 04:28N 40°38' W 074°09'0 0.0
2015-Aug-25 03:31N 40°38' W 074°09'0 0.0
2015-Aug-25 02:31N 40°38' W 074°09'0 0.0
2015-Aug-25 01:25N 40°38' W 074°09'0 0.0
2015-Aug-25 00:31N 40°38' W 074°09'0 0.1
2015-Aug-24 23:33N 40°38' W 074°09'9 8.9
2015-Aug-24 22:31N 40°42' W 073°58'1 0.6
2015-Aug-24 21:33N 40°42' W 073°59'0 0.4
2015-Aug-24 20:33N 40°42' W 073°59'0 0.3
2015-Aug-24 19:33N 40°42' W 073°58'0 0.0
2015-Aug-24 18:33N 40°42' W 073°58'0 0.0
2015-Aug-24 17:33N 40°42' W 073°58'0 0.0
2015-Aug-24 16:33N 40°42' W 073°58'2 1.9
2015-Aug-24 15:33N 40°41' W 074°01'6 5.5
2015-Aug-24 14:31N 40°39' W 074°07'0 0.0
2015-Aug-24 13:29N 40°39' W 074°07'0 0.2
2015-Aug-24 12:32N 40°39' W 074°07'2 2.2
2015-Aug-24 11:32N 40°39' W 074°10'  

Dump ship's entire track history